メインページ
METAR-TAF:

METAR-TAF

空港 :

ンジャメナ国際空港

ンジャメナ, チャド

緯度: 12-08N, 経度: 015-02E, 海抜: 295m

現時点の気象観測

当レポートは45分前の05:00(UTC)に作成
無風
気温 20°C
湿度 68%
気圧 1008 hPa
視程10km以上
1,500メートル以下は雲なし、積乱雲なし

METAR: FTTJ 220500Z 00000KT CAVOK 20/14 Q1008 NOSIG

時間: 06:45 (05:45 UTC)

予報

当レポートは45分前の05:00(UTC)に作成
予報は22日の 06時(UTC)から 23日の 12時(UTC)まで有効
変向風 4kt
視程: 8000m
22日の 06時(UTC)から 22日の 08時(UTC)まで一時的に
視程: 4000m
煙霧
22日の 16時(UTC)から 22日の 19時(UTC)まで一時的に
視程: 4000m
煙霧

TAF: FTTJ 220500Z 2206/2312 VRB04KT 8000 NSC TEMPO 2206/2208 4000 HZ TEMPO 2216/2219 4000 HZ

4,000以上の空港の気象観測と天気予報(METAR報とTAF報)

利用可能な観測所は地図上に黄色い丸と赤い丸で示す。

丸の上にカーソルを重ねると観測所名を参照できる。

次にクリックすると気象観測と天気予報を参照できる。

マップの切り替え:黒色「×」印の緑ボタンをクリックして拡大、「-」印の緑ボタンをクリックして縮小、緑色の三角印をクリックして隣りの地図に切り替え


METAR-TAF: